Time;durP1;ratioP1;P1;durP2;ratioP2;P2;SDS_P1;SDS_P2;PMS_P1;PMS_P2;Temp;Humidity;BMP_temperature;BMP_pressure;BME280_temperature;BME280_humidity;BME280_pressure;Samples;Min_cycle;Max_cycle;Signal;HPM_P1;HPM_P2
2022/10/01 00:02:06;;;;;;;5.55;4.25;;;;;;;11.46;84.14;100305.31;5029275;28;20046;-67
2022/10/01 00:04:37;;;;;;;7.07;4.95;;;;;;;11.43;84.21;100297.53;5029115;28;20038;-68
2022/10/01 00:07:08;;;;;;;5.60;4.22;;;;;;;11.43;84.37;100302.81;5028765;28;20049;-68
2022/10/01 00:09:35;;;;;;;6.75;4.50;;;;;;;11.41;84.77;100305.53;5025025;28;20408;-68
2022/10/01 00:12:03;;;;;;;6.57;4.50;;;;;;;11.39;84.93;100298.59;5029511;28;20448;-68
2022/10/01 00:14:30;;;;;;;5.88;4.10;;;;;;;11.37;85.13;100303.06;5025499;28;20048;-68
2022/10/01 00:16:57;;;;;;;4.72;4.22;;;;;;;11.36;85.23;100294.28;5028028;28;20050;-68
2022/10/01 00:19:24;;;;;;;6.53;4.50;;;;;;;11.32;85.41;100283.00;5028111;28;20136;-68
2022/10/01 00:21:51;;;;;;;6.47;4.90;;;;;;;11.32;85.65;100276.88;5029695;28;20046;-68
2022/10/01 00:24:18;;;;;;;5.75;4.38;;;;;;;11.34;86.17;100275.03;5029621;28;20531;-68
2022/10/01 00:26:46;;;;;;;7.38;5.28;;;;;;;11.31;85.94;100264.59;5029999;28;20065;-68
2022/10/01 00:29:14;;;;;;;10.13;5.03;;;;;;;11.28;86.43;100255.06;5027979;28;20137;-68
2022/10/01 00:31:42;;;;;;;6.85;4.88;;;;;;;11.27;86.54;100250.69;5029031;28;20045;-68
2022/10/01 00:34:13;;;;;;;6.65;4.78;;;;;;;11.27;86.93;100241.91;5027615;28;20077;-67
2022/10/01 00:36:41;;;;;;;5.80;4.43;;;;;;;11.25;86.57;100246.38;5029058;28;20539;-70
2022/10/01 00:39:11;;;;;;;8.57;4.60;;;;;;;11.27;86.74;100250.69;5028542;28;20073;-70
2022/10/01 00:41:39;;;;;;;6.60;4.97;;;;;;;11.25;86.92;100243.75;5028992;28;20066;-70
2022/10/01 00:44:27;;;;;;;5.60;4.57;;;;;;;11.24;87.10;100247.34;5028243;28;20049;-70
2022/10/01 00:47:16;;;;;;;6.80;5.05;;;;;;;11.24;87.29;100242.06;5026670;28;20038;-70
2022/10/01 00:49:46;;;;;;;7.13;4.57;;;;;;;11.24;87.30;100231.50;5028032;28;20120;-70
2022/10/01 00:52:23;;;;;;;6.10;4.50;;;;;;;11.24;87.46;100242.06;5029339;28;20050;-70
2022/10/01 00:55:13;;;;;;;7.10;4.68;;;;;;;11.23;87.41;100221.88;5027889;28;20045;-70
2022/10/01 00:57:44;;;;;;;7.68;4.80;;;;;;;11.24;87.49;100221.78;5010571;28;20042;-70
2022/10/01 01:00:13;;;;;;;7.13;4.80;;;;;;;11.24;87.56;100210.41;5027263;28;20038;-67
2022/10/01 01:02:41;;;;;;;7.25;4.88;;;;;;;11.23;87.53;100220.06;5028284;28;20491;-67
2022/10/01 01:05:12;;;;;;;6.32;4.93;;;;;;;11.25;87.55;100222.63;5027005;28;20038;-68
2022/10/01 01:07:47;;;;;;;6.82;4.95;;;;;;;11.25;87.71;100230.56;5028430;28;20074;-68
2022/10/01 01:10:28;;;;;;;7.38;5.07;;;;;;;11.24;87.75;100221.78;5026967;28;20045;-68
2022/10/01 01:13:20;;;;;;;6.90;4.97;;;;;;;11.24;87.91;100223.59;5026981;28;20117;-67
2022/10/01 01:16:06;;;;;;;8.98;4.97;;;;;;;11.23;87.98;100214.78;5023239;28;20050;-67
2022/10/01 01:18:53;;;;;;;7.63;5.07;;;;;;;11.19;88.31;100205.31;5024495;28;20212;-68
2022/10/01 01:21:29;;;;;;;6.35;4.80;;;;;;;11.17;88.58;100202.72;5027566;28;20455;-68
2022/10/01 01:24:22;;;;;;;6.07;4.93;;;;;;;11.13;88.70;100200.28;5029590;28;20133;-68
2022/10/01 01:27:24;;;;;;;9.55;4.80;;;;;;;11.10;89.40;100184.56;5029879;28;20185;-68
2022/10/01 01:30:16;;;;;;;6.95;5.10;;;;;;;11.04;89.50;100185.69;5029925;28;20094;-68
2022/10/01 01:33:01;;;;;;;6.53;4.97;;;;;;;11.03;89.77;100181.38;5030007;28;20050;-68
2022/10/01 01:36:03;;;;;;;8.52;4.68;;;;;;;11.01;89.82;100170.88;5029670;28;20129;-68
2022/10/01 01:38:39;;;;;;;8.82;4.90;;;;;;;11.00;90.35;100145.41;5027731;28;20041;-69
2022/10/01 01:41:10;;;;;;;6.88;5.15;;;;;;;10.98;90.50;100143.78;5031392;28;20046;-68
2022/10/01 01:43:44;;;;;;;7.35;4.72;;;;;;;10.99;90.75;100111.22;5017814;28;20045;-68
2022/10/01 01:46:17;;;;;;;7.55;4.55;;;;;;;10.95;90.85;100048.97;5030476;28;20038;-69
2022/10/01 01:48:49;;;;;;;7.15;4.50;;;;;;;10.95;91.11;100031.38;5028429;28;20038;-68
2022/10/01 01:51:30;;;;;;;8.88;4.50;;;;;;;10.96;91.24;100055.94;5029481;28;20542;-69
2022/10/01 01:53:59;;;;;;;5.72;4.32;;;;;;;10.97;91.33;100078.75;5030694;28;20050;-68
2022/10/01 01:56:26;;;;;;;5.80;4.20;;;;;;;10.95;91.49;100068.28;5030315;28;20034;-68
2022/10/01 01:58:53;;;;;;;8.00;4.50;;;;;;;10.96;91.74;100071.78;5028414;28;20045;-68
2022/10/01 02:01:38;;;;;;;5.85;4.63;;;;;;;10.97;91.76;100078.75;5031149;28;20038;-68
2022/10/01 02:04:41;;;;;;;6.50;4.20;;;;;;;10.97;91.82;100094.59;5031393;28;20038;-67
2022/10/01 02:07:23;;;;;;;5.05;3.95;;;;;;;10.99;91.50;100083.03;5025598;28;20054;-68
2022/10/01 02:10:22;;;;;;;5.15;4.30;;;;;;;11.02;91.67;100082.91;5029751;28;20547;-68
2022/10/01 02:13:11;;;;;;;5.35;4.00;;;;;;;11.03;91.50;100084.63;5012955;28;20046;-67
2022/10/01 02:16:19;;;;;;;5.70;3.95;;;;;;;11.07;91.54;100076.59;5025667;28;20042;-68
2022/10/01 02:18:49;;;;;;;5.03;3.47;;;;;;;11.10;91.37;100061.47;5028472;28;20128;-68
2022/10/01 02:21:46;;;;;;;5.93;4.38;;;;;;;11.12;91.54;100071.94;5029899;28;20033;-68
2022/10/01 02:24:37;;;;;;;3.85;3.42;;;;;;;11.13;91.41;100045.53;5029972;28;20042;-69
2022/10/01 02:27:17;;;;;;;4.80;3.15;;;;;;;11.14;91.38;100055.13;5024373;28;20065;-69
2022/10/01 02:29:45;;;;;;;4.28;3.40;;;;;;;11.15;91.52;100053.34;5029878;28;20046;-69
2022/10/01 02:32:16;;;;;;;4.00;2.95;;;;;;;11.15;91.65;100034.88;5029142;28;20042;-68
2022/10/01 02:34:48;;;;;;;4.78;3.35;;;;;;;11.16;91.50;100033.97;5027901;28;20050;-68
2022/10/01 02:37:23;;;;;;;5.07;3.20;;;;;;;11.15;91.44;100037.53;5031567;28;20037;-67
2022/10/01 02:39:56;;;;;;;4.65;3.35;;;;;;;11.15;91.67;100038.38;5029356;28;20046;-68
2022/10/01 02:42:28;;;;;;;4.15;3.45;;;;;;;11.12;91.66;100029.75;5031601;28;20479;-68
2022/10/01 02:45:01;;;;;;;5.53;3.35;;;;;;;11.12;92.08;100041.16;5028251;28;20041;-68
2022/10/01 02:47:38;;;;;;;3.88;3.13;;;;;;;11.10;91.91;100039.50;5024657;28;20128;-68
2022/10/01 02:50:07;;;;;;;4.10;2.95;;;;;;;11.07;92.21;100024.69;5027771;28;20038;-67
2022/10/01 02:52:47;;;;;;;3.65;3.00;;;;;;;11.03;92.76;100000.22;5024877;28;20049;-67
2022/10/01 02:55:29;;;;;;;5.35;2.72;;;;;;;11.03;92.95;100002.03;5025357;28;20963;-67
2022/10/01 02:57:57;;;;;;;6.55;2.60;;;;;;;11.03;93.09;100000.22;5030359;28;20049;-67
2022/10/01 03:00:26;;;;;;;3.38;2.40;;;;;;;11.04;93.19;99998.44;5028000;28;20135;-66
2022/10/01 03:02:53;;;;;;;2.60;1.92;;;;;;;11.05;93.12;100000.16;5017143;28;20054;-69
2022/10/01 03:05:21;;;;;;;3.40;2.25;;;;;;;11.07;93.05;100006.22;5029347;28;20542;-70
2022/10/01 03:07:48;;;;;;;3.90;2.13;;;;;;;11.07;93.18;100002.72;5028898;28;20037;-70
2022/10/01 03:10:15;;;;;;;3.72;2.47;;;;;;;11.09;93.27;99998.25;5029450;28;20049;-71
2022/10/01 03:12:46;;;;;;;2.75;2.38;;;;;;;11.09;93.35;99993.81;5036794;28;20528;-71
2022/10/01 03:15:18;;;;;;;2.95;2.40;;;;;;;11.09;93.35;99996.44;5026642;28;20052;-69
2022/10/01 03:17:49;;;;;;;2.25;2.05;;;;;;;11.13;93.24;99986.63;5024786;28;20050;-69
2022/10/01 03:20:17;;;;;;;4.07;2.30;;;;;;;11.13;93.39;99983.97;5027327;28;20042;-69
2022/10/01 03:22:46;;;;;;;2.13;1.70;;;;;;;11.16;93.19;99989.13;5030048;28;20124;-68
2022/10/01 03:25:14;;;;;;;3.08;1.65;;;;;;;11.17;93.32;99978.47;5029537;28;20046;-67
2022/10/01 03:27:42;;;;;;;3.88;2.00;;;;;;;11.17;93.50;99983.75;5030259;28;20511;-68
2022/10/01 03:30:10;;;;;;;1.70;1.50;;;;;;;11.20;93.26;99988.03;5030185;28;20049;-67
2022/10/01 03:32:37;;;;;;;1.92;1.35;;;;;;;11.23;93.24;99997.59;5025202;28;20527;-67
2022/10/01 03:35:05;;;;;;;1.80;1.55;;;;;;;11.22;92.93;99996.72;5017532;28;20125;-68
2022/10/01 03:37:32;;;;;;;2.42;1.67;;;;;;;11.26;93.07;99997.44;5029491;28;20034;-68
2022/10/01 03:39:59;;;;;;;1.65;1.52;;;;;;;11.28;93.04;99990.31;5029276;28;20085;-69
2022/10/01 03:42:26;;;;;;;3.28;1.55;;;;;;;11.29;93.00;99986.75;5026179;28;20117;-68
2022/10/01 03:44:53;;;;;;;2.95;1.38;;;;;;;11.29;92.92;99987.59;5029998;28;20048;-68
2022/10/01 03:47:23;;;;;;;4.38;1.50;;;;;;;11.30;93.02;99978.75;5024299;28;20046;-68
2022/10/01 03:49:50;;;;;;;1.98;1.50;;;;;;;11.31;92.73;99988.38;5030197;28;20084;-68
2022/10/01 03:52:17;;;;;;;1.23;1.13;;;;;;;11.34;92.85;99977.69;5029441;28;20128;-70
2022/10/01 03:54:44;;;;;;;4.30;1.33;;;;;;;11.36;92.99;99968.84;5029083;28;20514;-68
2022/10/01 03:57:11;;;;;;;1.88;1.20;;;;;;;11.38;92.78;99980.19;5028789;28;20053;-68
2022/10/01 03:59:38;;;;;;;1.65;1.20;;;;;;;11.41;92.45;99982.66;5029509;28;20471;-69
2022/10/01 04:02:06;;;;;;;2.35;1.17;;;;;;;11.42;92.44;99981.75;5028743;28;20042;-68
2022/10/01 04:04:33;;;;;;;1.10;1.00;;;;;;;11.44;92.61;99980.78;5023689;28;20065;-68
2022/10/01 04:07:00;;;;;;;1.45;1.10;;;;;;;11.47;92.39;99979.75;5028850;28;20104;-68
2022/10/01 04:09:27;;;;;;;1.83;1.20;;;;;;;11.48;92.64;99984.94;5029735;28;20046;-67
2022/10/01 04:11:54;;;;;;;1.40;0.98;;;;;;;11.50;92.44;99977.81;5022704;28;20081;-67
2022/10/01 04:14:21;;;;;;;3.63;1.10;;;;;;;11.53;92.13;99983.91;5027121;28;20046;-67
2022/10/01 04:16:51;;;;;;;1.55;1.00;;;;;;;11.55;92.10;99987.31;5029310;28;20510;-67
2022/10/01 04:19:19;;;;;;;1.23;1.00;;;;;;;11.55;92.31;99987.31;5029699;28;20065;-66
2022/10/01 04:21:46;;;;;;;1.17;0.90;;;;;;;11.57;92.27;99990.72;5027886;28;20042;-66
2022/10/01 04:24:13;;;;;;;1.30;0.90;;;;;;;11.58;92.08;99990.66;5027990;28;20061;-66
2022/10/01 04:26:40;;;;;;;0.70;0.70;;;;;;;11.58;92.23;99990.66;5028103;28;20042;-66
2022/10/01 04:29:08;;;;;;;1.85;0.85;;;;;;;11.60;92.35;99988.78;5028952;28;20459;-66
2022/10/01 04:31:35;;;;;;;0.70;0.70;;;;;;;11.63;92.41;99982.53;5027873;28;20101;-66
2022/10/01 04:34:04;;;;;;;1.30;0.70;;;;;;;11.65;92.31;99991.19;5028428;28;20038;-66
2022/10/01 04:36:31;;;;;;;1.38;0.80;;;;;;;11.67;92.25;99986.69;5023726;28;20065;-66
2022/10/01 04:38:58;;;;;;;0.68;0.68;;;;;;;11.70;92.13;99985.72;5022894;28;20385;-66
2022/10/01 04:41:31;;;;;;;1.77;0.70;;;;;;;11.73;92.14;99991.72;5026196;28;20514;-65
2022/10/01 04:44:00;;;;;;;0.68;0.50;;;;;;;11.76;92.01;100004.75;5022365;28;20041;-65
2022/10/01 04:46:30;;;;;;;0.93;0.70;;;;;;;11.77;92.07;99998.53;5025235;28;20045;-66
2022/10/01 04:48:57;;;;;;;0.70;0.50;;;;;;;11.80;91.85;100005.47;5023646;28;20039;-65
2022/10/01 04:51:24;;;;;;;0.82;0.60;;;;;;;11.81;91.85;100005.38;5027697;28;20045;-65
2022/10/01 04:53:51;;;;;;;0.60;0.45;;;;;;;11.83;91.79;99999.19;5026846;28;20054;-65
2022/10/01 04:56:18;;;;;;;0.82;0.50;;;;;;;11.86;91.97;100005.16;5025863;28;20035;-65
2022/10/01 04:58:47;;;;;;;0.65;0.40;;;;;;;11.86;91.92;100007.81;5030687;28;20092;-69
2022/10/01 05:01:14;;;;;;;3.72;0.40;;;;;;;11.91;92.13;100016.34;5031531;28;20046;-69
2022/10/01 05:03:41;;;;;;;0.47;0.40;;;;;;;11.93;92.01;100019.75;5029391;28;20430;-68
2022/10/01 05:06:08;;;;;;;0.60;0.50;;;;;;;11.96;91.77;100014.34;5029691;28;20034;-69
2022/10/01 05:08:36;;;;;;;1.65;0.40;;;;;;;11.98;91.73;100016.09;5031612;28;20038;-68
2022/10/01 05:11:04;;;;;;;1.05;0.50;;;;;;;11.99;91.83;100023.09;5031129;28;20108;-68
2022/10/01 05:13:33;;;;;;;0.88;0.40;;;;;;;12.00;91.93;100025.63;5029610;28;20066;-67
2022/10/01 05:16:02;;;;;;;1.70;0.60;;;;;;;12.01;92.03;100027.34;5028429;28;20042;-68
2022/10/01 05:18:29;;;;;;;0.40;0.40;;;;;;;12.02;91.90;100033.47;5029596;28;20054;-68
2022/10/01 05:20:56;;;;;;;0.55;0.40;;;;;;;12.02;92.10;100042.28;5031705;28;20119;-68
2022/10/01 05:23:24;;;;;;;1.00;0.50;;;;;;;12.02;92.20;100047.56;5028063;28;20057;-68
2022/10/01 05:25:51;;;;;;;0.60;0.50;;;;;;;12.04;92.20;100055.41;5031611;28;20045;-68
2022/10/01 05:28:18;;;;;;;1.50;0.60;;;;;;;12.04;92.25;100052.75;5029520;28;20041;-68
2022/10/01 05:30:49;;;;;;;0.50;0.50;;;;;;;12.04;92.30;100053.63;5029792;28;20049;-69
2022/10/01 05:33:17;;;;;;;1.20;0.50;;;;;;;12.07;92.18;100055.25;5028651;28;20034;-68
2022/10/01 05:35:44;;;;;;;0.77;0.70;;;;;;;12.09;92.25;100056.03;5029286;28;20909;-69
2022/10/01 05:38:11;;;;;;;0.47;0.40;;;;;;;12.11;92.36;100065.59;5029664;28;20701;-69
2022/10/01 05:40:38;;;;;;;0.60;0.60;;;;;;;12.12;92.45;100063.78;5028883;28;20081;-71
2022/10/01 05:43:05;;;;;;;0.70;0.52;;;;;;;12.14;92.53;100061.09;5030977;28;20156;-69
2022/10/01 05:45:32;;;;;;;0.90;0.63;;;;;;;12.13;92.72;100068.16;5029334;28;20061;-69
2022/10/01 05:48:03;;;;;;;2.65;0.70;;;;;;;12.15;92.70;100070.75;5022406;28;20132;-69
2022/10/01 05:50:34;;;;;;;2.30;0.90;;;;;;;12.18;92.71;100070.56;5029326;28;20455;-69
2022/10/01 05:53:01;;;;;;;0.95;0.80;;;;;;;12.18;92.71;100067.91;5028241;28;20041;-70
2022/10/01 05:55:33;;;;;;;2.05;0.82;;;;;;;12.20;92.75;100064.28;5030406;28;20088;-68
2022/10/01 05:58:05;;;;;;;1.85;1.30;;;;;;;12.23;92.99;100073.84;5028677;28;20113;-68
2022/10/01 06:00:33;;;;;;;2.30;1.10;;;;;;;12.25;92.92;100069.34;5029964;28;20057;-69
2022/10/01 06:03:03;;;;;;;3.58;1.10;;;;;;;12.23;93.16;100077.34;5025470;28;20077;-70
2022/10/01 06:05:33;;;;;;;4.55;1.48;;;;;;;12.30;92.92;100088.47;5026879;28;20558;-69
2022/10/01 06:08:04;;;;;;;2.45;0.95;;;;;;;12.30;93.06;100083.19;5027515;28;20874;-69
2022/10/01 06:10:32;;;;;;;2.08;1.40;;;;;;;12.33;92.90;100090.09;5030283;28;20074;-69
2022/10/01 06:13:04;;;;;;;2.50;1.50;;;;;;;12.34;93.03;100097.09;5041288;28;20104;-69
2022/10/01 06:15:36;;;;;;;1.63;1.40;;;;;;;12.37;93.03;100089.03;5029749;28;20042;-69
2022/10/01 06:18:07;;;;;;;2.50;1.25;;;;;;;12.39;93.22;100090.66;5027289;28;20146;-69
2022/10/01 06:20:35;;;;;;;2.53;1.50;;;;;;;12.42;93.16;100094.91;5029581;28;20085;-69
2022/10/01 06:23:06;;;;;;;1.52;1.40;;;;;;;12.42;93.20;100095.78;5028998;28;20045;-69
2022/10/01 06:25:35;;;;;;;2.25;1.40;;;;;;;12.45;92.94;100105.34;5029842;28;20041;-69
2022/10/01 06:28:04;;;;;;;1.50;1.40;;;;;;;12.47;93.20;100102.63;5026303;28;20038;-67
2022/10/01 06:30:35;;;;;;;1.92;1.20;;;;;;;12.54;93.39;100101.41;5031123;28;20049;-65
2022/10/01 06:33:09;;;;;;;5.00;1.52;;;;;;;12.68;93.59;100104.19;5029453;28;20046;-67
2022/10/01 06:35:48;;;;;;;3.67;1.60;;;;;;;12.79;93.13;100100.13;5028852;28;20101;-66
2022/10/01 06:38:19;;;;;;;4.18;1.73;;;;;;;12.89;92.89;100104.88;5028416;28;20038;-65
2022/10/01 06:40:58;;;;;;;2.75;1.50;;;;;;;13.00;92.91;100111.41;5031740;28;20042;-65
2022/10/01 06:43:28;;;;;;;6.30;1.80;;;;;;;13.08;92.00;100106.56;5028126;28;20508;-66
2022/10/01 06:46:01;;;;;;;2.00;1.77;;;;;;;13.13;91.64;100112.47;5030925;28;20053;-68
2022/10/01 06:48:30;;;;;;;2.13;1.60;;;;;;;13.20;91.17;100108.56;5027471;28;20175;-66
2022/10/01 06:50:58;;;;;;;3.58;2.00;;;;;;;13.26;90.97;100115.34;5023372;28;20526;-66
2022/10/01 06:53:27;;;;;;;2.42;2.10;;;;;;;13.31;90.50;100115.09;5025538;28;20045;-66
2022/10/01 06:55:55;;;;;;;2.13;1.92;;;;;;;13.29;90.54;100109.84;5025242;28;20049;-67
2022/10/01 06:58:26;;;;;;;3.47;1.80;;;;;;;13.30;90.56;100111.56;5027371;28;20495;-67
2022/10/01 07:01:00;;;;;;;2.80;1.90;;;;;;;13.36;90.17;100123.63;5027176;28;20046;-67
2022/10/01 07:03:28;;;;;;;2.67;2.40;;;;;;;13.40;90.07;100119.06;5025465;28;20579;-67
2022/10/01 07:06:04;;;;;;;7.05;2.63;;;;;;;13.46;90.15;100118.75;5026574;28;20038;-67
2022/10/01 07:08:32;;;;;;;3.67;1.90;;;;;;;13.54;90.42;100113.88;5026330;28;20048;-67
2022/10/01 07:11:01;;;;;;;2.58;2.38;;;;;;;13.62;90.19;100116.13;5022163;28;20043;-65
2022/10/01 07:13:29;;;;;;;3.22;2.60;;;;;;;13.79;89.95;100125.75;5025207;28;20224;-68
2022/10/01 07:15:56;;;;;;;5.45;2.50;;;;;;;13.95;89.77;100126.66;5027273;28;20093;-67
2022/10/01 07:18:24;;;;;;;3.30;2.38;;;;;;;14.01;89.31;100135.16;5025105;28;20062;-68
2022/10/01 07:20:52;;;;;;;2.40;2.20;;;;;;;13.97;89.17;100132.72;5027306;28;20038;-68
2022/10/01 07:23:19;;;;;;;3.47;2.30;;;;;;;13.94;89.41;100139.94;5026107;28;20607;-65
2022/10/01 07:25:46;;;;;;;3.20;2.03;;;;;;;13.93;89.44;100136.47;5026405;28;20049;-68
2022/10/01 07:28:18;;;;;;;6.05;2.22;;;;;;;13.97;88.86;100138.00;5022197;28;20071;-67
2022/10/01 07:31:00;;;;;;;3.85;2.45;;;;;;;14.05;88.52;100139.38;5022795;28;20046;-67
2022/10/01 07:33:28;;;;;;;3.42;2.67;;;;;;;14.07;88.67;100141.00;5027359;28;20042;-67
2022/10/01 07:36:00;;;;;;;4.18;2.67;;;;;;;14.12;88.43;100148.69;5027523;28;20500;-68
2022/10/01 07:38:29;;;;;;;3.78;2.95;;;;;;;14.19;88.60;100154.50;5016128;28;20049;-69
2022/10/01 07:40:57;;;;;;;4.60;2.90;;;;;;;14.19;88.83;100151.84;5027834;28;20068;-69
2022/10/01 07:43:25;;;;;;;6.72;3.03;;;;;;;14.12;88.87;100157.50;5029175;28;20042;-68
2022/10/01 07:45:53;;;;;;;3.00;2.70;;;;;;;14.11;88.78;100169.03;5028742;28;20060;-69
2022/10/01 07:48:21;;;;;;;3.90;3.10;;;;;;;14.19;88.74;100165.09;5031143;28;20859;-69
2022/10/01 07:50:49;;;;;;;4.32;3.13;;;;;;;14.27;88.66;100168.16;5030605;28;20038;-70
2022/10/01 07:53:19;;;;;;;4.22;2.53;;;;;;;14.40;88.71;100169.19;5030095;28;20101;-69
2022/10/01 07:55:46;;;;;;;6.20;3.00;;;;;;;14.55;88.58;100171.91;5030777;28;20041;-70
2022/10/01 07:58:13;;;;;;;3.83;3.10;;;;;;;14.52;87.51;100169.44;5031806;28;20052;-68
2022/10/01 08:00:42;;;;;;;3.70;2.97;;;;;;;14.58;87.63;100177.03;5030596;28;20503;-69
2022/10/01 08:03:12;;;;;;;7.75;3.30;;;;;;;14.71;87.76;100185.16;5030047;28;20049;-70
2022/10/01 08:05:41;;;;;;;5.32;3.65;;;;;;;14.77;87.99;100192.78;5031118;28;20042;-70
2022/10/01 08:08:08;;;;;;;4.57;3.42;;;;;;;14.88;87.86;100190.34;5030713;28;20822;-70
2022/10/01 08:10:37;;;;;;;5.53;3.80;;;;;;;15.00;87.63;100191.41;5030087;28;20547;-70
2022/10/01 08:13:13;;;;;;;7.13;3.90;;;;;;;15.04;86.95;100192.97;5030945;28;20069;-70
2022/10/01 08:15:46;;;;;;;7.88;4.13;;;;;;;15.03;87.06;100198.34;5030803;28;20057;-70
2022/10/01 08:18:13;;;;;;;10.18;4.50;;;;;;;14.99;87.01;100210.09;5030869;28;20101;-70
2022/10/01 08:20:41;;;;;;;6.40;4.07;;;;;;;14.93;87.03;100202.47;5030290;28;20045;-70
2022/10/01 08:23:11;;;;;;;5.68;4.40;;;;;;;14.89;86.75;100209.78;5030747;28;20492;-70
2022/10/01 08:25:40;;;;;;;6.63;4.13;;;;;;;14.81;86.78;100199.59;5030306;28;20485;-70
2022/10/01 08:28:09;;;;;;;4.97;4.47;;;;;;;14.82;87.09;100206.63;5029382;28;20140;-71
2022/10/01 08:30:39;;;;;;;9.68;4.00;;;;;;;14.84;87.26;100209.19;5025985;28;20066;-70
2022/10/01 08:33:10;;;;;;;6.03;4.32;;;;;;;14.80;87.25;100210.31;5031645;28;20053;-70
2022/10/01 08:35:42;;;;;;;5.80;4.40;;;;;;;14.73;87.63;100223.06;5034344;28;20057;-70
2022/10/01 08:38:11;;;;;;;5.88;4.50;;;;;;;14.76;87.88;100225.56;5033413;28;20050;-70
2022/10/01 08:40:49;;;;;;;7.05;4.40;;;;;;;14.83;87.76;100228.72;5030988;28;20033;-70
2022/10/01 08:43:29;;;;;;;6.78;4.60;;;;;;;14.92;87.69;100228.19;5018185;28;20250;-70
2022/10/01 08:46:05;;;;;;;8.73;4.60;;;;;;;15.07;87.48;100232.56;5037933;28;20038;-69
2022/10/01 08:48:52;;;;;;;5.88;4.10;;;;;;;15.14;87.43;100229.56;5045992;28;20064;-70
2022/10/01 08:51:37;;;;;;;7.07;3.83;;;;;;;15.16;86.65;100235.66;5033249;28;20084;-70
2022/10/01 08:54:46;;;;;;;4.25;3.13;;;;;;;15.18;86.42;100239.91;5034200;28;20105;-70
2022/10/01 08:57:21;;;;;;;3.67;2.97;;;;;;;15.21;86.16;100237.06;5032322;28;20527;-69
2022/10/01 08:59:54;;;;;;;5.18;3.17;;;;;;;15.19;85.86;100240.75;5032548;28;20109;-70
2022/10/01 09:02:24;;;;;;;4.60;3.05;;;;;;;15.07;85.60;100245.00;5028928;28;20047;-70
2022/10/01 09:05:02;;;;;;;4.97;3.15;;;;;;;14.98;85.39;100250.84;5023604;28;20041;-70
2022/10/01 09:08:14;;;;;;;4.10;3.60;;;;;;;14.88;85.75;100238.13;5033192;28;20121;-69
2022/10/01 09:10:59;;;;;;;6.07;4.30;;;;;;;14.86;85.70;100233.81;5025939;28;20092;-69
2022/10/01 09:14:01;;;;;;;8.18;4.57;;;;;;;14.85;86.21;100250.72;5030822;28;20061;-66
2022/10/01 09:16:59;;;;;;;5.95;4.95;;;;;;;14.85;86.64;100254.22;5031345;28;20045;-68
2022/10/01 09:20:10;;;;;;;9.18;5.30;;;;;;;14.79;86.98;100254.56;5029754;28;20128;-68
2022/10/01 09:23:01;;;;;;;5.80;5.20;;;;;;;14.77;87.42;100256.44;5022552;28;20050;-67
2022/10/01 09:25:33;;;;;;;6.68;5.53;;;;;;;14.76;87.47;100265.34;5037189;28;20045;-68
2022/10/01 09:28:20;;;;;;;6.90;5.15;;;;;;;14.81;87.23;100267.75;5031125;28;20089;-68
2022/10/01 09:30:56;;;;;;;7.93;5.95;;;;;;;15.03;87.57;100264.69;5030950;28;20045;-68
2022/10/01 09:33:32;;;;;;;7.57;6.07;;;;;;;15.17;87.34;100269.19;5028776;28;20049;-68
2022/10/01 09:36:35;;;;;;;7.28;6.13;;;;;;;15.33;87.30;100269.16;5032724;28;20571;-67
2022/10/01 09:39:28;;;;;;;9.23;5.18;;;;;;;15.44;86.08;100272.03;5034728;28;20062;-67
2022/10/01 09:41:55;;;;;;;8.77;4.95;;;;;;;15.61;86.23;100278.97;5028425;28;20492;-70
2022/10/01 09:44:29;;;;;;;8.43;5.10;;;;;;;15.86;86.63;100277.53;5027942;28;20041;-70
2022/10/01 09:46:57;;;;;;;6.15;4.45;;;;;;;16.01;85.47;100280.16;5030822;28;20624;-69
2022/10/01 09:49:32;;;;;;;6.47;4.43;;;;;;;16.18;84.64;100282.63;5027131;28;20598;-66
2022/10/01 09:52:09;;;;;;;5.38;4.25;;;;;;;16.17;84.91;100280.94;5028440;28;20046;-67
2022/10/01 09:54:46;;;;;;;7.78;4.70;;;;;;;16.12;84.44;100280.38;5030690;28;20041;-67
2022/10/01 09:57:27;;;;;;;6.10;3.90;;;;;;;16.27;84.54;100278.53;5031258;28;20124;-68
2022/10/01 10:00:10;;;;;;;7.18;3.60;;;;;;;16.36;82.68;100287.75;5032204;28;20045;-68
2022/10/01 10:02:38;;;;;;;6.23;3.33;;;;;;;16.44;82.61;100288.97;5030654;28;20089;-69
2022/10/01 10:05:26;;;;;;;7.38;3.33;;;;;;;16.53;82.65;100295.50;5029825;28;20065;-68
2022/10/01 10:08:14;;;;;;;7.07;2.92;;;;;;;16.74;80.58;100300.41;5022122;28;20045;-68
2022/10/01 10:11:05;;;;;;;10.05;2.63;;;;;;;16.94;80.05;100303.59;5030999;28;20042;-67
2022/10/01 10:13:53;;;;;;;11.55;3.30;;;;;;;16.96;78.95;100307.03;5029533;28;20046;-68
2022/10/01 10:16:30;;;;;;;7.78;3.17;;;;;;;17.17;79.23;100302.94;5031762;28;20506;-68
2022/10/01 10:19:05;;;;;;;6.55;2.75;;;;;;;17.41;77.49;100304.91;5029225;28;20069;-69
2022/10/01 10:21:35;;;;;;;7.60;2.13;;;;;;;17.56;76.62;100318.16;5029650;28;20077;-69
2022/10/01 10:24:25;;;;;;;7.18;2.22;;;;;;;17.76;74.47;100319.44;5032565;28;20449;-70
2022/10/01 10:26:58;;;;;;;7.47;1.50;;;;;;;17.91;72.20;100326.38;5030166;28;20049;-68
2022/10/01 10:29:30;;;;;;;4.93;1.58;;;;;;;17.77;72.07;100322.00;5031324;28;20034;-69
2022/10/01 10:32:24;;;;;;;8.60;1.63;;;;;;;17.66;72.64;100321.91;5030750;28;20052;-70
2022/10/01 10:34:55;;;;;;;5.65;1.17;;;;;;;17.52;71.97;100318.34;5030541;28;20053;-69
2022/10/01 10:37:35;;;;;;;6.63;1.40;;;;;;;17.65;73.17;100321.03;5028413;28;20042;-70
2022/10/01 10:40:07;;;;;;;8.57;1.55;;;;;;;17.72;73.13;100321.47;5032223;28;20042;-70
2022/10/01 10:42:37;;;;;;;7.25;1.63;;;;;;;17.64;74.05;100329.13;5029755;28;20046;-70
2022/10/01 10:45:16;;;;;;;7.13;1.40;;;;;;;17.83;71.99;100331.41;5031883;28;20149;-69
2022/10/01 10:47:50;;;;;;;7.60;1.10;;;;;;;17.87;69.39;100342.72;5030642;28;20041;-70
2022/10/01 10:50:32;;;;;;;3.33;0.90;;;;;;;17.85;70.55;100348.16;5031873;28;20413;-70
2022/10/01 10:53:42;;;;;;;5.53;1.30;;;;;;;17.95;71.18;100335.88;5026808;28;20271;-70
2022/10/01 10:56:23;;;;;;;7.70;1.55;;;;;;;18.45;71.93;100340.47;5032675;28;20041;-70
2022/10/01 10:58:52;;;;;;;6.75;1.40;;;;;;;18.79;67.71;100346.03;5033310;28;20038;-70
2022/10/01 11:01:28;;;;;;;7.30;1.38;;;;;;;19.07;65.53;100342.22;5029305;28;20053;-72
2022/10/01 11:03:59;;;;;;;6.53;1.02;;;;;;;19.21;65.57;100346.53;5031184;28;20135;-69
2022/10/01 11:06:27;;;;;;;8.02;1.38;;;;;;;19.33;65.19;100344.75;5030151;28;20394;-69
2022/10/01 11:09:06;;;;;;;7.40;1.02;;;;;;;19.32;63.82;100356.44;5028442;28;20117;-68
2022/10/01 11:12:04;;;;;;;4.78;0.88;;;;;;;19.35;64.08;100352.66;5030129;28;20042;-69
2022/10/01 11:15:09;;;;;;;7.20;1.13;;;;;;;19.18;64.19;100359.25;5033014;28;20042;-68
2022/10/01 11:18:15;;;;;;;;;;;;;;;18.94;62.67;100370.78;5030187;28;20050;-68
2022/10/01 11:21:15;;;;;;;7.30;0.95;;;;;;;18.53;63.08;100369.25;5045840;28;20445;-68
2022/10/01 11:24:07;;;;;;;9.75;1.20;;;;;;;18.22;64.04;100377.63;5033057;28;20123;-68
2022/10/01 11:27:23;;;;;;;4.80;1.20;;;;;;;18.30;64.82;100382.44;5030276;28;20053;-67
2022/10/01 11:30:27;;;;;;;8.18;1.33;;;;;;;18.29;63.49;100384.22;5029860;28;20045;-70
2022/10/01 11:33:15;;;;;;;4.77;1.10;;;;;;;18.10;61.98;100395.34;5029422;28;20096;-68
2022/10/01 11:35:59;;;;;;;6.03;1.10;;;;;;;18.10;61.49;100384.69;5027033;28;20041;-67
2022/10/01 11:38:45;;;;;;;9.63;1.13;;;;;;;18.23;62.88;100392.66;5030339;28;20049;-70
2022/10/01 11:41:29;;;;;;;9.93;1.83;;;;;;;18.35;62.96;100424.81;5025337;28;20050;-69
2022/10/01 11:44:12;;;;;;;5.50;1.05;;;;;;;18.26;61.35;100403.09;5038581;28;20038;-66
2022/10/01 11:46:53;;;;;;;11.68;1.48;;;;;;;18.39;60.26;100405.78;5028913;28;20042;-70
2022/10/01 11:49:51;;;;;;;5.15;1.00;;;;;;;18.54;61.30;100414.53;5028846;28;20539;-70
2022/10/01 11:53:21;;;;;;;8.13;1.42;;;;;;;18.76;61.03;100413.84;5025292;28;20393;-71
2022/10/01 11:59:18;;;;;;;6.65;1.02;;;;;;;18.73;58.85;100426.56;5026242;28;20057;-68
2022/10/01 12:02:14;;;;;;;6.20;1.00;;;;;;;18.71;58.66;100429.38;5026307;28;20065;-68
2022/10/01 12:04:57;;;;;;;6.85;1.10;;;;;;;18.76;57.79;100434.38;5027952;28;20064;-68
2022/10/01 12:07:38;;;;;;;10.95;1.20;;;;;;;18.85;58.37;100443.53;5027779;28;20061;-67